»·PEaware :: N149CD KBUR-KSBP

N149CD :: KBUR-KSBP

FLIGHT INFORMATION

Flight Status: Arrived
Operator: Privately registered:
United States
More flights under this callsign
Pilot: Nathan E. (30132)
Aircraft: CIRRUS VISIONJET
(SF50)
More flights by this aircraft type
Origin: KBUR Bob Hope-Burbank
United States
Destination: KSBP San Luis Co Regl
United States
More flights between these airports :: More routes between these airports
Route: VNY3 FIM V186 RZS MQO
File this flight plan on PilotEdge
Remarks:
Altitude:
(Current/Filed)
12,000ft
Speed:
(Current/Filed)
300kts
Departed: 19-Dec-20 03:17 PM
Arrived: 19-Dec-20 03:56 PM
Distance/Time
Traveled:
129nm/0:39
Distance/Time
To Go:
Arrived

Flight Plot

Page will automatically refresh every two minutes.

Flight plan parsing failed; only flown route is shown


Map Options




Map Legend


Flown Route
Filed Route
Departure Airport
Arrival Airport
Navaid (VOR, NDB)
Fix

Horizontal Profiles

Position Reports

Time Latitude Longitude Heading Altitude Ground
Speed
19-Dec-20 14:56 34.200210 -118.358859 280 721ft 0kts
19-Dec-20 14:57 34.200210 -118.358859 280 721ft 0kts
19-Dec-20 14:58 34.200210 -118.358859 280 721ft 0kts
19-Dec-20 14:59 34.200210 -118.358859 280 721ft 0kts
19-Dec-20 15:00 34.200210 -118.358859 280 721ft 0kts
19-Dec-20 15:01 34.200210 -118.358859 280 721ft 0kts
19-Dec-20 15:02 34.200210 -118.358859 280 721ft 0kts
19-Dec-20 15:03 34.200210 -118.358859 280 721ft 0kts
19-Dec-20 15:04 34.200210 -118.358859 280 721ft 0kts
19-Dec-20 15:05 34.200210 -118.358859 280 721ft 0kts
19-Dec-20 15:06 34.200210 -118.358859 280 721ft 0kts
19-Dec-20 15:07 34.200210 -118.358859 280 721ft 0kts
19-Dec-20 15:08 34.200210 -118.358859 280 721ft 0kts
19-Dec-20 15:09 34.200210 -118.358859 280 721ft 0kts
19-Dec-20 15:10 34.200210 -118.358859 280 721ft 0kts
19-Dec-20 15:11 34.200226 -118.358277 347 720ft 11kts
19-Dec-20 15:12 34.204851 -118.359554 348 738ft 20kts
19-Dec-20 15:13 34.210279 -118.361045 348 765ft 18kts
19-Dec-20 15:14 34.211985 -118.361314 34 769ft 0kts
19-Dec-20 15:15 34.212159 -118.360940 79 769ft 12kts
19-Dec-20 15:16 34.195159 -118.355732 166 971ft 160kts
19-Dec-20 15:17 34.160069 -118.383477 226 3977ft 179kts
19-Dec-20 15:18 34.122113 -118.434493 226 4024ft 213kts
19-Dec-20 15:19 34.120465 -118.488191 314 6671ft 190kts
19-Dec-20 15:20 34.149626 -118.537228 309 9945ft 181kts
19-Dec-20 15:21 34.180233 -118.587821 310 12031ft 206kts
19-Dec-20 15:22 34.222428 -118.657710 308 12025ft 293kts
19-Dec-20 15:23 34.272721 -118.741331 308 12016ft 316kts
19-Dec-20 15:24 34.324828 -118.828123 308 12009ft 321kts
19-Dec-20 15:25 34.352405 -118.927343 270 12012ft 329kts
19-Dec-20 15:26 34.345251 -119.037795 267 12009ft 329kts
19-Dec-20 15:27 34.337060 -119.148047 267 12013ft 329kts
19-Dec-20 15:28 34.328734 -119.258475 267 12017ft 329kts
19-Dec-20 15:29 34.320360 -119.368362 267 12022ft 329kts
19-Dec-20 15:30 34.345387 -119.468508 305 12027ft 318kts
19-Dec-20 15:31 34.393837 -119.557899 306 12036ft 318kts
19-Dec-20 15:32 34.442573 -119.647483 306 12037ft 319kts
19-Dec-20 15:33 34.491253 -119.737238 305 12036ft 319kts
19-Dec-20 15:34 34.546713 -119.819731 316 12033ft 316kts
19-Dec-20 15:35 34.606380 -119.898212 315 12026ft 316kts
19-Dec-20 15:36 34.667390 -119.978723 315 12020ft 316kts
19-Dec-20 15:37 34.727458 -120.058117 315 12017ft 316kts
19-Dec-20 15:38 34.786774 -120.136679 315 12020ft 316kts
19-Dec-20 15:39 34.846357 -120.215761 315 11766ft 323kts
19-Dec-20 15:40 34.906668 -120.299203 312 10959ft 330kts
19-Dec-20 15:41 34.961660 -120.388246 297 10153ft 332kts
19-Dec-20 15:42 34.989378 -120.465279 297 9306ft 189kts
19-Dec-20 15:43 35.008512 -120.519867 306 8305ft 163kts
19-Dec-20 15:44 35.042248 -120.511023 32 7284ft 121kts
19-Dec-20 15:45 35.069896 -120.486198 32 6273ft 126kts
19-Dec-20 15:46 35.097930 -120.460802 32 5257ft 125kts
19-Dec-20 15:47 35.124575 -120.454997 318 4242ft 100kts
19-Dec-20 15:48 35.142492 -120.479594 308 3233ft 95kts
19-Dec-20 15:49 35.157518 -120.503652 307 2932ft 89kts
19-Dec-20 15:50 35.172432 -120.527963 307 2616ft 92kts
19-Dec-20 15:51 35.187151 -120.553060 305 2053ft 89kts
19-Dec-20 15:52 35.201585 -120.578326 304 1489ft 91kts
19-Dec-20 15:53 35.215917 -120.603436 304 938ft 90kts
19-Dec-20 15:54 35.229685 -120.627625 304 358ft 81kts
19-Dec-20 15:55 35.237290 -120.639950 6 216ft 0kts
19-Dec-20 15:56 35.238795 -120.638873 280 216ft 3kts
19-Dec-20 15:57 35.238798 -120.638955 271 216ft 0kts
19-Dec-20 15:58 35.238798 -120.638955 271 216ft 0kts

Navigation Log

Ident Type
Flight plan parsing failed, navigation log unavailable